sensor_id;sensor_type;location;lat;lon;timestamp;P1;durP1;ratioP1;P2;durP2;ratioP2
10248;SDS011;5169;50.560;9.714;2023-05-21T00:02:29;270.03;;;109.17;;
10248;SDS011;5169;50.560;9.714;2023-05-21T00:04:55;275.97;;;108.60;;
10248;SDS011;5169;50.560;9.714;2023-05-21T00:07:20;280.97;;;111.83;;
10248;SDS011;5169;50.560;9.714;2023-05-21T00:09:47;281.23;;;111.57;;
10248;SDS011;5169;50.560;9.714;2023-05-21T00:12:12;270.17;;;105.43;;
10248;SDS011;5169;50.560;9.714;2023-05-21T00:14:41;271.83;;;108.50;;
10248;SDS011;5169;50.560;9.714;2023-05-21T00:17:06;270.07;;;109.10;;
10248;SDS011;5169;50.560;9.714;2023-05-21T00:19:32;273.37;;;106.77;;
10248;SDS011;5169;50.560;9.714;2023-05-21T00:21:58;272.93;;;112.37;;
10248;SDS011;5169;50.560;9.714;2023-05-21T00:24:29;265.63;;;110.00;;
10248;SDS011;5169;50.560;9.714;2023-05-21T00:27:00;272.93;;;106.43;;
10248;SDS011;5169;50.560;9.714;2023-05-21T00:29:28;266.27;;;109.77;;
10248;SDS011;5169;50.560;9.714;2023-05-21T00:31:54;287.07;;;110.83;;
10248;SDS011;5169;50.560;9.714;2023-05-21T00:34:20;261.30;;;108.80;;
10248;SDS011;5169;50.560;9.714;2023-05-21T00:36:46;261.63;;;108.47;;
10248;SDS011;5169;50.560;9.714;2023-05-21T00:39:12;254.73;;;108.17;;
10248;SDS011;5169;50.560;9.714;2023-05-21T00:41:43;268.40;;;109.80;;
10248;SDS011;5169;50.560;9.714;2023-05-21T00:44:10;261.10;;;108.20;;
10248;SDS011;5169;50.560;9.714;2023-05-21T00:46:44;264.57;;;107.47;;
10248;SDS011;5169;50.560;9.714;2023-05-21T00:49:12;257.40;;;106.90;;
10248;SDS011;5169;50.560;9.714;2023-05-21T00:51:41;253.77;;;104.63;;
10248;SDS011;5169;50.560;9.714;2023-05-21T00:54:09;271.53;;;107.70;;
10248;SDS011;5169;50.560;9.714;2023-05-21T00:56:35;266.63;;;104.90;;
10248;SDS011;5169;50.560;9.714;2023-05-21T00:59:07;259.67;;;108.97;;
10248;SDS011;5169;50.560;9.714;2023-05-21T01:01:35;261.93;;;107.87;;
10248;SDS011;5169;50.560;9.714;2023-05-21T01:04:09;260.77;;;109.07;;
10248;SDS011;5169;50.560;9.714;2023-05-21T01:06:41;248.53;;;101.67;;
10248;SDS011;5169;50.560;9.714;2023-05-21T01:09:08;253.43;;;107.50;;
10248;SDS011;5169;50.560;9.714;2023-05-21T01:11:42;245.77;;;104.23;;
10248;SDS011;5169;50.560;9.714;2023-05-21T01:14:11;258.00;;;108.93;;
10248;SDS011;5169;50.560;9.714;2023-05-21T01:16:46;250.90;;;104.60;;
10248;SDS011;5169;50.560;9.714;2023-05-21T01:19:19;255.70;;;101.80;;
10248;SDS011;5169;50.560;9.714;2023-05-21T01:21:48;247.60;;;107.30;;
10248;SDS011;5169;50.560;9.714;2023-05-21T01:24:21;246.50;;;101.97;;
10248;SDS011;5169;50.560;9.714;2023-05-21T01:26:47;248.87;;;101.30;;
10248;SDS011;5169;50.560;9.714;2023-05-21T01:29:20;248.57;;;102.83;;
10248;SDS011;5169;50.560;9.714;2023-05-21T01:34:37;248.57;;;102.03;;
10248;SDS011;5169;50.560;9.714;2023-05-21T01:37:26;250.90;;;106.20;;
10248;SDS011;5169;50.560;9.714;2023-05-21T01:40:02;229.70;;;103.00;;
10248;SDS011;5169;50.560;9.714;2023-05-21T01:42:35;251.27;;;102.00;;
10248;SDS011;5169;50.560;9.714;2023-05-21T01:45:09;234.97;;;102.03;;
10248;SDS011;5169;50.560;9.714;2023-05-21T01:47:37;243.77;;;104.10;;
10248;SDS011;5169;50.560;9.714;2023-05-21T01:50:05;246.67;;;104.40;;
10248;SDS011;5169;50.560;9.714;2023-05-21T01:52:31;238.57;;;102.23;;
10248;SDS011;5169;50.560;9.714;2023-05-21T01:54:59;245.90;;;105.10;;
10248;SDS011;5169;50.560;9.714;2023-05-21T01:57:31;244.37;;;103.87;;
10248;SDS011;5169;50.560;9.714;2023-05-21T01:59:56;248.00;;;104.37;;
10248;SDS011;5169;50.560;9.714;2023-05-21T02:02:23;245.17;;;102.30;;
10248;SDS011;5169;50.560;9.714;2023-05-21T02:04:48;238.67;;;96.73;;
10248;SDS011;5169;50.560;9.714;2023-05-21T02:07:17;242.33;;;98.57;;
10248;SDS011;5169;50.560;9.714;2023-05-21T02:09:42;246.33;;;98.40;;
10248;SDS011;5169;50.560;9.714;2023-05-21T02:12:08;244.60;;;101.60;;
10248;SDS011;5169;50.560;9.714;2023-05-21T02:14:34;243.37;;;101.60;;
10248;SDS011;5169;50.560;9.714;2023-05-21T02:17:00;239.13;;;100.43;;
10248;SDS011;5169;50.560;9.714;2023-05-21T02:19:29;234.97;;;99.37;;
10248;SDS011;5169;50.560;9.714;2023-05-21T02:21:54;241.47;;;98.73;;
10248;SDS011;5169;50.560;9.714;2023-05-21T02:24:22;247.53;;;99.30;;
10248;SDS011;5169;50.560;9.714;2023-05-21T02:26:48;248.10;;;100.00;;
10248;SDS011;5169;50.560;9.714;2023-05-21T02:29:16;235.60;;;98.77;;
10248;SDS011;5169;50.560;9.714;2023-05-21T02:31:44;241.90;;;99.20;;
10248;SDS011;5169;50.560;9.714;2023-05-21T02:34:10;233.97;;;101.33;;
10248;SDS011;5169;50.560;9.714;2023-05-21T02:36:38;244.80;;;102.60;;
10248;SDS011;5169;50.560;9.714;2023-05-21T02:39:08;232.50;;;100.07;;
10248;SDS011;5169;50.560;9.714;2023-05-21T02:41:33;228.80;;;95.50;;
10248;SDS011;5169;50.560;9.714;2023-05-21T02:43:59;228.83;;;99.13;;
10248;SDS011;5169;50.560;9.714;2023-05-21T02:46:25;222.03;;;97.57;;
10248;SDS011;5169;50.560;9.714;2023-05-21T02:48:50;226.73;;;95.73;;
10248;SDS011;5169;50.560;9.714;2023-05-21T02:51:16;227.57;;;97.57;;
10248;SDS011;5169;50.560;9.714;2023-05-21T02:53:47;220.20;;;97.27;;
10248;SDS011;5169;50.560;9.714;2023-05-21T02:56:13;226.80;;;96.27;;
10248;SDS011;5169;50.560;9.714;2023-05-21T02:58:38;233.37;;;99.43;;
10248;SDS011;5169;50.560;9.714;2023-05-21T03:01:04;234.47;;;99.37;;
10248;SDS011;5169;50.560;9.714;2023-05-21T03:03:30;225.70;;;97.73;;
10248;SDS011;5169;50.560;9.714;2023-05-21T03:05:56;234.63;;;98.63;;
10248;SDS011;5169;50.560;9.714;2023-05-21T03:08:30;234.37;;;100.07;;
10248;SDS011;5169;50.560;9.714;2023-05-21T03:10:56;229.83;;;93.97;;
10248;SDS011;5169;50.560;9.714;2023-05-21T03:13:28;238.23;;;100.13;;
10248;SDS011;5169;50.560;9.714;2023-05-21T03:15:56;232.07;;;100.07;;
10248;SDS011;5169;50.560;9.714;2023-05-21T03:18:25;231.30;;;97.17;;
10248;SDS011;5169;50.560;9.714;2023-05-21T03:20:51;231.93;;;93.70;;
10248;SDS011;5169;50.560;9.714;2023-05-21T03:23:16;236.70;;;98.97;;
10248;SDS011;5169;50.560;9.714;2023-05-21T03:25:42;235.67;;;98.87;;
10248;SDS011;5169;50.560;9.714;2023-05-21T03:28:12;242.33;;;101.10;;
10248;SDS011;5169;50.560;9.714;2023-05-21T03:30:37;230.93;;;98.60;;
10248;SDS011;5169;50.560;9.714;2023-05-21T03:33:03;234.37;;;97.73;;
10248;SDS011;5169;50.560;9.714;2023-05-21T03:35:32;240.40;;;100.47;;
10248;SDS011;5169;50.560;9.714;2023-05-21T03:37:59;236.73;;;97.60;;
10248;SDS011;5169;50.560;9.714;2023-05-21T03:40:25;242.90;;;95.63;;
10248;SDS011;5169;50.560;9.714;2023-05-21T03:42:51;232.27;;;96.27;;
10248;SDS011;5169;50.560;9.714;2023-05-21T03:45:16;222.77;;;95.23;;
10248;SDS011;5169;50.560;9.714;2023-05-21T03:47:42;243.27;;;101.50;;
10248;SDS011;5169;50.560;9.714;2023-05-21T03:50:08;243.73;;;99.17;;
10248;SDS011;5169;50.560;9.714;2023-05-21T03:52:37;246.47;;;101.90;;
10248;SDS011;5169;50.560;9.714;2023-05-21T03:55:05;237.07;;;94.10;;
10248;SDS011;5169;50.560;9.714;2023-05-21T03:57:33;243.67;;;96.47;;
10248;SDS011;5169;50.560;9.714;2023-05-21T03:59:59;246.97;;;98.37;;
10248;SDS011;5169;50.560;9.714;2023-05-21T04:02:28;249.40;;;96.57;;
10248;SDS011;5169;50.560;9.714;2023-05-21T04:04:56;253.20;;;99.57;;
10248;SDS011;5169;50.560;9.714;2023-05-21T04:07:24;246.77;;;98.23;;
10248;SDS011;5169;50.560;9.714;2023-05-21T04:09:54;244.03;;;101.63;;
10248;SDS011;5169;50.560;9.714;2023-05-21T04:12:20;248.13;;;100.27;;
10248;SDS011;5169;50.560;9.714;2023-05-21T04:14:46;249.03;;;100.63;;
10248;SDS011;5169;50.560;9.714;2023-05-21T04:17:11;254.10;;;102.80;;
10248;SDS011;5169;50.560;9.714;2023-05-21T04:19:43;244.90;;;99.50;;
10248;SDS011;5169;50.560;9.714;2023-05-21T04:22:09;250.80;;;102.07;;
10248;SDS011;5169;50.560;9.714;2023-05-21T04:24:35;250.07;;;100.43;;
10248;SDS011;5169;50.560;9.714;2023-05-21T04:27:04;241.07;;;102.97;;
10248;SDS011;5169;50.560;9.714;2023-05-21T04:29:30;240.90;;;99.00;;
10248;SDS011;5169;50.560;9.714;2023-05-21T04:31:56;257.60;;;101.13;;
10248;SDS011;5169;50.560;9.714;2023-05-21T04:34:21;249.03;;;103.67;;
10248;SDS011;5169;50.560;9.714;2023-05-21T04:36:47;260.70;;;104.87;;
10248;SDS011;5169;50.560;9.714;2023-05-21T04:39:16;250.17;;;105.13;;
10248;SDS011;5169;50.560;9.714;2023-05-21T04:41:44;250.27;;;103.63;;
10248;SDS011;5169;50.560;9.714;2023-05-21T04:44:09;255.23;;;104.10;;
10248;SDS011;5169;50.560;9.714;2023-05-21T04:46:40;251.10;;;104.27;;
10248;SDS011;5169;50.560;9.714;2023-05-21T04:49:06;263.27;;;106.67;;
10248;SDS011;5169;50.560;9.714;2023-05-21T04:51:40;266.93;;;107.37;;
10248;SDS011;5169;50.560;9.714;2023-05-21T04:54:06;256.07;;;107.30;;
10248;SDS011;5169;50.560;9.714;2023-05-21T04:56:32;263.13;;;110.73;;
10248;SDS011;5169;50.560;9.714;2023-05-21T04:58:57;264.50;;;108.50;;
10248;SDS011;5169;50.560;9.714;2023-05-21T05:01:23;259.90;;;105.53;;
10248;SDS011;5169;50.560;9.714;2023-05-21T05:03:50;266.87;;;109.97;;
10248;SDS011;5169;50.560;9.714;2023-05-21T05:06:18;270.67;;;109.87;;
10248;SDS011;5169;50.560;9.714;2023-05-21T05:08:45;256.77;;;107.73;;
10248;SDS011;5169;50.560;9.714;2023-05-21T05:11:11;262.50;;;111.00;;
10248;SDS011;5169;50.560;9.714;2023-05-21T05:13:38;250.73;;;108.47;;
10248;SDS011;5169;50.560;9.714;2023-05-21T05:16:05;259.77;;;111.57;;
10248;SDS011;5169;50.560;9.714;2023-05-21T05:18:31;271.53;;;112.70;;
10248;SDS011;5169;50.560;9.714;2023-05-21T05:20:58;269.30;;;113.73;;
10248;SDS011;5169;50.560;9.714;2023-05-21T05:23:24;266.27;;;115.63;;
10248;SDS011;5169;50.560;9.714;2023-05-21T05:25:54;272.50;;;115.83;;
10248;SDS011;5169;50.560;9.714;2023-05-21T05:28:20;267.63;;;116.90;;
10248;SDS011;5169;50.560;9.714;2023-05-21T05:30:45;266.13;;;117.57;;
10248;SDS011;5169;50.560;9.714;2023-05-21T05:33:11;268.33;;;117.63;;
10248;SDS011;5169;50.560;9.714;2023-05-21T05:35:37;267.43;;;118.00;;
10248;SDS011;5169;50.560;9.714;2023-05-21T05:38:11;271.50;;;118.57;;
10248;SDS011;5169;50.560;9.714;2023-05-21T05:40:37;274.23;;;115.50;;
10248;SDS011;5169;50.560;9.714;2023-05-21T05:43:10;276.00;;;120.07;;
10248;SDS011;5169;50.560;9.714;2023-05-21T05:45:36;266.13;;;117.70;;
10248;SDS011;5169;50.560;9.714;2023-05-21T05:48:01;270.77;;;120.47;;
10248;SDS011;5169;50.560;9.714;2023-05-21T05:50:36;271.03;;;127.77;;
10248;SDS011;5169;50.560;9.714;2023-05-21T05:53:08;264.90;;;126.17;;
10248;SDS011;5169;50.560;9.714;2023-05-21T05:55:37;265.33;;;123.83;;
10248;SDS011;5169;50.560;9.714;2023-05-21T05:58:07;268.37;;;122.30;;
10248;SDS011;5169;50.560;9.714;2023-05-21T06:00:35;335.53;;;131.70;;
10248;SDS011;5169;50.560;9.714;2023-05-21T06:03:00;313.83;;;127.87;;
10248;SDS011;5169;50.560;9.714;2023-05-21T06:05:26;315.20;;;129.57;;
10248;SDS011;5169;50.560;9.714;2023-05-21T06:07:55;292.77;;;130.07;;
10248;SDS011;5169;50.560;9.714;2023-05-21T06:10:21;305.10;;;130.27;;
10248;SDS011;5169;50.560;9.714;2023-05-21T06:12:49;297.43;;;132.93;;
10248;SDS011;5169;50.560;9.714;2023-05-21T06:15:15;322.63;;;131.63;;
10248;SDS011;5169;50.560;9.714;2023-05-21T06:17:44;314.97;;;134.70;;
10248;SDS011;5169;50.560;9.714;2023-05-21T06:20:10;303.47;;;129.13;;
10248;SDS011;5169;50.560;9.714;2023-05-21T06:22:36;307.70;;;137.53;;
10248;SDS011;5169;50.560;9.714;2023-05-21T06:25:09;304.47;;;141.83;;
10248;SDS011;5169;50.560;9.714;2023-05-21T06:27:36;307.50;;;138.10;;
10248;SDS011;5169;50.560;9.714;2023-05-21T06:30:02;311.00;;;137.73;;
10248;SDS011;5169;50.560;9.714;2023-05-21T06:32:31;313.70;;;139.43;;
10248;SDS011;5169;50.560;9.714;2023-05-21T06:34:56;310.60;;;141.90;;
10248;SDS011;5169;50.560;9.714;2023-05-21T06:37:22;312.50;;;146.97;;
10248;SDS011;5169;50.560;9.714;2023-05-21T06:39:50;352.47;;;148.10;;
10248;SDS011;5169;50.560;9.714;2023-05-21T06:42:21;350.57;;;153.83;;
10248;SDS011;5169;50.560;9.714;2023-05-21T06:44:49;354.97;;;159.33;;
10248;SDS011;5169;50.560;9.714;2023-05-21T06:47:19;358.33;;;149.50;;
10248;SDS011;5169;50.560;9.714;2023-05-21T06:49:44;352.13;;;155.90;;
10248;SDS011;5169;50.560;9.714;2023-05-21T06:52:10;361.73;;;166.60;;
10248;SDS011;5169;50.560;9.714;2023-05-21T06:54:36;369.10;;;170.53;;
10248;SDS011;5169;50.560;9.714;2023-05-21T06:57:09;374.83;;;167.87;;
10248;SDS011;5169;50.560;9.714;2023-05-21T06:59:34;380.27;;;159.47;;
10248;SDS011;5169;50.560;9.714;2023-05-21T07:02:00;374.67;;;151.70;;
10248;SDS011;5169;50.560;9.714;2023-05-21T07:04:26;374.67;;;156.53;;
10248;SDS011;5169;50.560;9.714;2023-05-21T07:06:51;376.27;;;160.23;;
10248;SDS011;5169;50.560;9.714;2023-05-21T07:09:21;377.03;;;169.27;;
10248;SDS011;5169;50.560;9.714;2023-05-21T07:11:51;388.57;;;174.87;;
10248;SDS011;5169;50.560;9.714;2023-05-21T07:14:26;385.90;;;169.43;;
10248;SDS011;5169;50.560;9.714;2023-05-21T07:16:51;383.50;;;163.27;;
10248;SDS011;5169;50.560;9.714;2023-05-21T07:19:31;389.93;;;173.73;;
10248;SDS011;5169;50.560;9.714;2023-05-21T07:21:56;386.63;;;172.57;;
10248;SDS011;5169;50.560;9.714;2023-05-21T07:24:22;396.77;;;186.13;;
10248;SDS011;5169;50.560;9.714;2023-05-21T07:26:50;389.37;;;181.37;;
10248;SDS011;5169;50.560;9.714;2023-05-21T07:29:19;396.23;;;184.40;;
10248;SDS011;5169;50.560;9.714;2023-05-21T07:31:47;393.63;;;189.40;;
10248;SDS011;5169;50.560;9.714;2023-05-21T07:34:12;396.60;;;202.30;;
10248;SDS011;5169;50.560;9.714;2023-05-21T07:36:38;400.00;;;205.63;;
10248;SDS011;5169;50.560;9.714;2023-05-21T07:39:07;401.33;;;205.50;;
10248;SDS011;5169;50.560;9.714;2023-05-21T07:41:32;400.07;;;206.33;;
10248;SDS011;5169;50.560;9.714;2023-05-21T07:43:58;404.43;;;218.03;;
10248;SDS011;5169;50.560;9.714;2023-05-21T07:46:25;405.33;;;225.20;;
10248;SDS011;5169;50.560;9.714;2023-05-21T07:48:58;406.77;;;225.90;;
10248;SDS011;5169;50.560;9.714;2023-05-21T07:51:24;406.20;;;230.07;;
10248;SDS011;5169;50.560;9.714;2023-05-21T07:53:50;402.63;;;219.47;;
10248;SDS011;5169;50.560;9.714;2023-05-21T07:56:19;408.83;;;235.23;;
10248;SDS011;5169;50.560;9.714;2023-05-21T07:58:45;406.63;;;237.43;;
10248;SDS011;5169;50.560;9.714;2023-05-21T08:01:11;409.90;;;245.27;;
10248;SDS011;5169;50.560;9.714;2023-05-21T08:03:39;410.07;;;237.77;;
10248;SDS011;5169;50.560;9.714;2023-05-21T08:06:19;413.50;;;249.70;;
10248;SDS011;5169;50.560;9.714;2023-05-21T08:08:46;415.20;;;253.73;;
10248;SDS011;5169;50.560;9.714;2023-05-21T08:11:12;416.50;;;264.70;;
10248;SDS011;5169;50.560;9.714;2023-05-21T08:13:37;417.50;;;269.10;;
10248;SDS011;5169;50.560;9.714;2023-05-21T08:16:03;424.37;;;291.83;;
10248;SDS011;5169;50.560;9.714;2023-05-21T08:18:33;421.73;;;277.43;;
10248;SDS011;5169;50.560;9.714;2023-05-21T08:20:58;420.30;;;281.53;;
10248;SDS011;5169;50.560;9.714;2023-05-21T08:23:24;428.87;;;308.10;;
10248;SDS011;5169;50.560;9.714;2023-05-21T08:25:51;423.03;;;283.83;;
10248;SDS011;5169;50.560;9.714;2023-05-21T08:28:21;422.17;;;292.77;;
10248;SDS011;5169;50.560;9.714;2023-05-21T08:30:49;423.73;;;289.80;;
10248;SDS011;5169;50.560;9.714;2023-05-21T08:33:14;423.40;;;296.40;;
10248;SDS011;5169;50.560;9.714;2023-05-21T08:35:47;417.40;;;277.17;;
10248;SDS011;5169;50.560;9.714;2023-05-21T08:38:15;424.77;;;283.47;;
10248;SDS011;5169;50.560;9.714;2023-05-21T08:40:47;423.37;;;288.90;;
10248;SDS011;5169;50.560;9.714;2023-05-21T08:43:15;424.43;;;298.30;;
10248;SDS011;5169;50.560;9.714;2023-05-21T08:45:52;423.17;;;293.80;;
10248;SDS011;5169;50.560;9.714;2023-05-21T08:48:23;425.00;;;298.47;;
10248;SDS011;5169;50.560;9.714;2023-05-21T08:50:52;423.57;;;298.93;;
10248;SDS011;5169;50.560;9.714;2023-05-21T08:53:24;427.60;;;305.57;;
10248;SDS011;5169;50.560;9.714;2023-05-21T08:55:56;429.73;;;321.13;;
10248;SDS011;5169;50.560;9.714;2023-05-21T08:58:26;427.83;;;310.27;;
10248;SDS011;5169;50.560;9.714;2023-05-21T09:00:56;431.00;;;319.67;;
10248;SDS011;5169;50.560;9.714;2023-05-21T09:03:22;433.17;;;328.50;;
10248;SDS011;5169;50.560;9.714;2023-05-21T09:05:50;429.27;;;314.23;;
10248;SDS011;5169;50.560;9.714;2023-05-21T09:08:21;430.07;;;318.47;;
10248;SDS011;5169;50.560;9.714;2023-05-21T09:11:02;430.00;;;318.00;;
10248;SDS011;5169;50.560;9.714;2023-05-21T09:13:27;428.57;;;316.47;;
10248;SDS011;5169;50.560;9.714;2023-05-21T09:15:58;425.83;;;309.97;;
10248;SDS011;5169;50.560;9.714;2023-05-21T09:18:24;431.70;;;328.00;;
10248;SDS011;5169;50.560;9.714;2023-05-21T09:20:51;431.73;;;329.97;;
10248;SDS011;5169;50.560;9.714;2023-05-21T09:23:37;433.17;;;342.23;;
10248;SDS011;5169;50.560;9.714;2023-05-21T09:26:09;436.50;;;346.30;;
10248;SDS011;5169;50.560;9.714;2023-05-21T09:28:39;433.67;;;335.60;;
10248;SDS011;5169;50.560;9.714;2023-05-21T09:31:12;438.00;;;344.43;;
10248;SDS011;5169;50.560;9.714;2023-05-21T09:33:48;434.10;;;345.17;;
10248;SDS011;5169;50.560;9.714;2023-05-21T09:36:16;430.80;;;337.27;;
10248;SDS011;5169;50.560;9.714;2023-05-21T09:38:51;433.43;;;340.87;;
10248;SDS011;5169;50.560;9.714;2023-05-21T09:41:29;431.47;;;336.10;;
10248;SDS011;5169;50.560;9.714;2023-05-21T09:43:59;431.70;;;337.53;;
10248;SDS011;5169;50.560;9.714;2023-05-21T09:46:26;434.93;;;350.07;;
10248;SDS011;5169;50.560;9.714;2023-05-21T09:48:51;437.57;;;359.73;;
10248;SDS011;5169;50.560;9.714;2023-05-21T09:51:21;436.77;;;351.07;;
10248;SDS011;5169;50.560;9.714;2023-05-21T09:53:57;434.63;;;357.93;;
10248;SDS011;5169;50.560;9.714;2023-05-21T09:56:28;438.37;;;364.83;;
10248;SDS011;5169;50.560;9.714;2023-05-21T09:58:58;440.20;;;367.60;;
10248;SDS011;5169;50.560;9.714;2023-05-21T10:01:27;436.83;;;364.27;;
10248;SDS011;5169;50.560;9.714;2023-05-21T10:04:02;440.93;;;364.70;;
10248;SDS011;5169;50.560;9.714;2023-05-21T10:06:39;442.47;;;384.93;;
10248;SDS011;5169;50.560;9.714;2023-05-21T10:09:15;437.17;;;359.13;;
10248;SDS011;5169;50.560;9.714;2023-05-21T10:11:56;436.30;;;354.50;;
10248;SDS011;5169;50.560;9.714;2023-05-21T10:14:24;438.60;;;363.57;;
10248;SDS011;5169;50.560;9.714;2023-05-21T10:16:51;432.57;;;349.07;;
10248;SDS011;5169;50.560;9.714;2023-05-21T10:19:24;439.60;;;375.90;;
10248;SDS011;5169;50.560;9.714;2023-05-21T10:21:51;435.60;;;363.10;;
10248;SDS011;5169;50.560;9.714;2023-05-21T10:24:22;443.00;;;382.10;;
10248;SDS011;5169;50.560;9.714;2023-05-21T10:26:48;436.67;;;355.33;;
10248;SDS011;5169;50.560;9.714;2023-05-21T10:29:14;435.57;;;356.77;;
10248;SDS011;5169;50.560;9.714;2023-05-21T10:31:48;435.70;;;360.20;;
10248;SDS011;5169;50.560;9.714;2023-05-21T10:34:25;437.17;;;370.57;;
10248;SDS011;5169;50.560;9.714;2023-05-21T10:36:53;445.23;;;368.73;;
10248;SDS011;5169;50.560;9.714;2023-05-21T10:39:26;442.10;;;378.97;;
10248;SDS011;5169;50.560;9.714;2023-05-21T10:42:07;439.87;;;367.07;;
10248;SDS011;5169;50.560;9.714;2023-05-21T10:56:17;521.00;;;470.30;;
10248;SDS011;5169;50.560;9.714;2023-05-21T11:01:49;552.22;;;501.13;;
10248;SDS011;5169;50.560;9.714;2023-05-21T11:04:20;575.88;;;524.17;;
10248;SDS011;5169;50.560;9.714;2023-05-21T11:06:52;542.23;;;491.60;;
10248;SDS011;5169;50.560;9.714;2023-05-21T11:09:21;547.85;;;496.52;;
10248;SDS011;5169;50.560;9.714;2023-05-21T11:11:50;536.15;;;485.58;;
10248;SDS011;5169;50.560;9.714;2023-05-21T11:19:35;568.65;;;517.15;;
10248;SDS011;5169;50.560;9.714;2023-05-21T11:22:05;566.88;;;515.47;;
10248;SDS011;5169;50.560;9.714;2023-05-21T11:24:32;546.92;;;496.20;;
10248;SDS011;5169;50.560;9.714;2023-05-21T11:27:09;568.53;;;517.40;;
10248;SDS011;5169;50.560;9.714;2023-05-21T11:32:05;520.33;;;469.80;;
10248;SDS011;5169;50.560;9.714;2023-05-21T11:34:46;509.58;;;459.83;;
10248;SDS011;5169;50.560;9.714;2023-05-21T11:39:49;547.20;;;496.50;;
10248;SDS011;5169;50.560;9.714;2023-05-21T11:42:26;568.45;;;517.40;;
10248;SDS011;5169;50.560;9.714;2023-05-21T11:45:00;575.95;;;524.90;;
10248;SDS011;5169;50.560;9.714;2023-05-21T11:47:27;565.80;;;514.80;;
10248;SDS011;5169;50.560;9.714;2023-05-21T11:50:00;571.05;;;520.00;;
10248;SDS011;5169;50.560;9.714;2023-05-21T11:52:27;579.13;;;527.75;;
10248;SDS011;5169;50.560;9.714;2023-05-21T11:54:57;556.22;;;505.50;;
10248;SDS011;5169;50.560;9.714;2023-05-21T11:57:27;554.70;;;503.60;;
10248;SDS011;5169;50.560;9.714;2023-05-21T11:59:56;545.33;;;494.13;;
10248;SDS011;5169;50.560;9.714;2023-05-21T12:02:24;543.77;;;492.57;;
10248;SDS011;5169;50.560;9.714;2023-05-21T12:04:53;563.30;;;511.53;;
10248;SDS011;5169;50.560;9.714;2023-05-21T12:07:24;534.07;;;482.80;;
10248;SDS011;5169;50.560;9.714;2023-05-21T12:09:53;547.67;;;496.03;;
10248;SDS011;5169;50.560;9.714;2023-05-21T12:12:19;522.90;;;471.97;;
10248;SDS011;5169;50.560;9.714;2023-05-21T12:14:47;512.87;;;461.90;;
10248;SDS011;5169;50.560;9.714;2023-05-21T12:17:17;532.50;;;480.80;;
10248;SDS011;5169;50.560;9.714;2023-05-21T12:19:44;528.53;;;477.43;;
10248;SDS011;5169;50.560;9.714;2023-05-21T12:22:10;542.73;;;491.30;;
10248;SDS011;5169;50.560;9.714;2023-05-21T12:24:37;548.10;;;496.47;;
10248;SDS011;5169;50.560;9.714;2023-05-21T12:27:03;553.17;;;501.60;;
10248;SDS011;5169;50.560;9.714;2023-05-21T12:29:35;548.67;;;496.83;;
10248;SDS011;5169;50.560;9.714;2023-05-21T12:32:06;538.37;;;486.77;;
10248;SDS011;5169;50.560;9.714;2023-05-21T12:34:43;551.23;;;499.67;;
10248;SDS011;5169;50.560;9.714;2023-05-21T12:37:10;530.00;;;478.90;;
10248;SDS011;5169;50.560;9.714;2023-05-21T12:39:46;531.93;;;480.77;;
10248;SDS011;5169;50.560;9.714;2023-05-21T12:42:13;510.43;;;459.53;;
10248;SDS011;5169;50.560;9.714;2023-05-21T12:44:47;489.73;;;439.63;;
10248;SDS011;5169;50.560;9.714;2023-05-21T12:47:13;489.90;;;439.73;;
10248;SDS011;5169;50.560;9.714;2023-05-21T12:49:39;501.93;;;451.53;;
10248;SDS011;5169;50.560;9.714;2023-05-21T12:52:14;500.27;;;449.93;;
10248;SDS011;5169;50.560;9.714;2023-05-21T12:54:49;488.90;;;438.87;;
10248;SDS011;5169;50.560;9.714;2023-05-21T12:57:18;499.57;;;449.30;;
10248;SDS011;5169;50.560;9.714;2023-05-21T12:59:57;476.80;;;427.00;;
10248;SDS011;5169;50.560;9.714;2023-05-21T13:07:28;455.80;;;406.40;;
10248;SDS011;5169;50.560;9.714;2023-05-21T13:09:56;471.00;;;421.20;;
10248;SDS011;5169;50.560;9.714;2023-05-21T13:12:22;474.13;;;423.97;;
10248;SDS011;5169;50.560;9.714;2023-05-21T13:14:50;472.93;;;423.13;;
10248;SDS011;5169;50.560;9.714;2023-05-21T13:17:17;469.53;;;419.83;;
10248;SDS011;5169;50.560;9.714;2023-05-21T13:19:49;498.40;;;448.00;;
10248;SDS011;5169;50.560;9.714;2023-05-21T13:22:32;498.83;;;448.50;;
10248;SDS011;5169;50.560;9.714;2023-05-21T13:25:00;500.87;;;450.70;;
10248;SDS011;5169;50.560;9.714;2023-05-21T13:27:26;476.27;;;426.53;;
10248;SDS011;5169;50.560;9.714;2023-05-21T13:29:52;463.47;;;414.00;;
10248;SDS011;5169;50.560;9.714;2023-05-21T13:32:18;472.30;;;422.57;;
10248;SDS011;5169;50.560;9.714;2023-05-21T13:34:43;465.37;;;415.93;;
10248;SDS011;5169;50.560;9.714;2023-05-21T13:37:12;479.17;;;429.07;;
10248;SDS011;5169;50.560;9.714;2023-05-21T13:39:38;466.07;;;416.43;;
10248;SDS011;5169;50.560;9.714;2023-05-21T13:42:03;487.97;;;438.03;;
10248;SDS011;5169;50.560;9.714;2023-05-21T13:44:30;482.17;;;432.53;;
10248;SDS011;5169;50.560;9.714;2023-05-21T13:47:02;491.80;;;441.93;;
10248;SDS011;5169;50.560;9.714;2023-05-21T13:49:32;488.53;;;438.83;;
10248;SDS011;5169;50.560;9.714;2023-05-21T13:51:58;494.40;;;444.30;;
10248;SDS011;5169;50.560;9.714;2023-05-21T13:54:25;480.67;;;430.47;;
10248;SDS011;5169;50.560;9.714;2023-05-21T13:56:50;467.50;;;417.93;;
10248;SDS011;5169;50.560;9.714;2023-05-21T13:59:16;468.80;;;419.13;;
10248;SDS011;5169;50.560;9.714;2023-05-21T14:01:42;461.33;;;411.80;;
10248;SDS011;5169;50.560;9.714;2023-05-21T14:04:09;479.57;;;429.50;;
10248;SDS011;5169;50.560;9.714;2023-05-21T14:06:35;480.33;;;430.67;;
10248;SDS011;5169;50.560;9.714;2023-05-21T14:09:05;470.00;;;420.70;;
10248;SDS011;5169;50.560;9.714;2023-05-21T14:11:33;464.53;;;415.33;;
10248;SDS011;5169;50.560;9.714;2023-05-21T14:14:02;446.27;;;397.40;;
10248;SDS011;5169;50.560;9.714;2023-05-21T14:16:28;477.33;;;427.60;;
10248;SDS011;5169;50.560;9.714;2023-05-21T14:18:56;462.67;;;413.33;;
10248;SDS011;5169;50.560;9.714;2023-05-21T14:21:22;487.23;;;437.27;;
10248;SDS011;5169;50.560;9.714;2023-05-21T14:23:51;480.70;;;431.00;;
10248;SDS011;5169;50.560;9.714;2023-05-21T14:26:19;479.90;;;430.27;;
10248;SDS011;5169;50.560;9.714;2023-05-21T14:28:47;460.27;;;411.20;;
10248;SDS011;5169;50.560;9.714;2023-05-21T14:31:13;475.00;;;425.47;;
10248;SDS011;5169;50.560;9.714;2023-05-21T14:33:39;487.20;;;437.43;;
10248;SDS011;5169;50.560;9.714;2023-05-21T14:36:06;485.80;;;436.07;;
10248;SDS011;5169;50.560;9.714;2023-05-21T14:38:32;494.57;;;444.83;;
10248;SDS011;5169;50.560;9.714;2023-05-21T14:41:02;506.80;;;456.53;;
10248;SDS011;5169;50.560;9.714;2023-05-21T14:43:28;493.43;;;443.30;;
10248;SDS011;5169;50.560;9.714;2023-05-21T14:45:53;481.23;;;431.90;;
10248;SDS011;5169;50.560;9.714;2023-05-21T14:48:19;469.67;;;420.37;;
10248;SDS011;5169;50.560;9.714;2023-05-21T14:50:51;472.53;;;423.00;;
10248;SDS011;5169;50.560;9.714;2023-05-21T14:53:17;483.60;;;434.00;;